sensor_id;sensor_type;location;lat;lon;timestamp;P1;durP1;ratioP1;P2;durP2;ratioP2
7051;SDS011;3567;52.444;13.556;2023-01-24T00:01:54;29.17;;;16.63;;
7051;SDS011;3567;52.444;13.556;2023-01-24T00:04:19;26.52;;;15.77;;
7051;SDS011;3567;52.444;13.556;2023-01-24T00:06:45;24.77;;;16.05;;
7051;SDS011;3567;52.444;13.556;2023-01-24T00:09:10;30.60;;;17.67;;
7051;SDS011;3567;52.444;13.556;2023-01-24T00:11:35;28.00;;;17.45;;
7051;SDS011;3567;52.444;13.556;2023-01-24T00:14:01;27.88;;;17.02;;
7051;SDS011;3567;52.444;13.556;2023-01-24T00:16:26;26.08;;;16.58;;
7051;SDS011;3567;52.444;13.556;2023-01-24T00:18:51;29.08;;;16.58;;
7051;SDS011;3567;52.444;13.556;2023-01-24T00:21:18;31.83;;;18.23;;
7051;SDS011;3567;52.444;13.556;2023-01-24T00:23:46;34.60;;;18.67;;
7051;SDS011;3567;52.444;13.556;2023-01-24T00:26:19;31.23;;;17.40;;
7051;SDS011;3567;52.444;13.556;2023-01-24T00:28:45;36.58;;;18.40;;
7051;SDS011;3567;52.444;13.556;2023-01-24T00:31:11;33.45;;;17.40;;
7051;SDS011;3567;52.444;13.556;2023-01-24T00:33:37;29.77;;;16.90;;
7051;SDS011;3567;52.444;13.556;2023-01-24T00:36:02;35.28;;;17.52;;
7051;SDS011;3567;52.444;13.556;2023-01-24T00:38:28;24.42;;;15.52;;
7051;SDS011;3567;52.444;13.556;2023-01-24T00:40:55;29.27;;;18.08;;
7051;SDS011;3567;52.444;13.556;2023-01-24T00:43:21;35.67;;;18.13;;
7051;SDS011;3567;52.444;13.556;2023-01-24T00:45:47;34.58;;;16.83;;
7051;SDS011;3567;52.444;13.556;2023-01-24T00:48:12;35.80;;;18.27;;
7051;SDS011;3567;52.444;13.556;2023-01-24T00:50:38;35.95;;;18.55;;
7051;SDS011;3567;52.444;13.556;2023-01-24T00:53:04;32.05;;;17.17;;
7051;SDS011;3567;52.444;13.556;2023-01-24T00:55:29;27.40;;;17.08;;
7051;SDS011;3567;52.444;13.556;2023-01-24T00:57:55;33.20;;;17.02;;
7051;SDS011;3567;52.444;13.556;2023-01-24T01:00:20;37.15;;;19.23;;
7051;SDS011;3567;52.444;13.556;2023-01-24T01:02:47;34.20;;;17.83;;
7051;SDS011;3567;52.444;13.556;2023-01-24T01:05:13;37.03;;;19.10;;
7051;SDS011;3567;52.444;13.556;2023-01-24T01:07:38;32.80;;;19.98;;
7051;SDS011;3567;52.444;13.556;2023-01-24T01:10:04;32.15;;;18.42;;
7051;SDS011;3567;52.444;13.556;2023-01-24T01:12:29;40.15;;;18.67;;
7051;SDS011;3567;52.444;13.556;2023-01-24T01:14:55;33.17;;;18.75;;
7051;SDS011;3567;52.444;13.556;2023-01-24T01:17:20;38.72;;;18.25;;
7051;SDS011;3567;52.444;13.556;2023-01-24T01:19:46;34.67;;;18.50;;
7051;SDS011;3567;52.444;13.556;2023-01-24T01:22:15;34.53;;;19.38;;
7051;SDS011;3567;52.444;13.556;2023-01-24T01:24:41;32.08;;;17.58;;
7051;SDS011;3567;52.444;13.556;2023-01-24T01:27:06;35.30;;;20.45;;
7051;SDS011;3567;52.444;13.556;2023-01-24T01:29:32;31.35;;;17.65;;
7051;SDS011;3567;52.444;13.556;2023-01-24T01:31:58;35.20;;;18.85;;
7051;SDS011;3567;52.444;13.556;2023-01-24T01:34:23;34.15;;;18.45;;
7051;SDS011;3567;52.444;13.556;2023-01-24T01:36:49;35.65;;;18.63;;
7051;SDS011;3567;52.444;13.556;2023-01-24T01:39:14;30.08;;;16.92;;
7051;SDS011;3567;52.444;13.556;2023-01-24T01:41:39;28.30;;;16.75;;
7051;SDS011;3567;52.444;13.556;2023-01-24T01:44:21;29.70;;;17.17;;
7051;SDS011;3567;52.444;13.556;2023-01-24T01:47:11;23.85;;;15.35;;
7051;SDS011;3567;52.444;13.556;2023-01-24T01:49:43;27.33;;;15.27;;
7051;SDS011;3567;52.444;13.556;2023-01-24T01:52:13;21.10;;;13.55;;
7051;SDS011;3567;52.444;13.556;2023-01-24T01:54:39;18.52;;;12.98;;
7051;SDS011;3567;52.444;13.556;2023-01-24T01:59:38;20.98;;;13.02;;
7051;SDS011;3567;52.444;13.556;2023-01-24T02:02:08;23.20;;;12.10;;
7051;SDS011;3567;52.444;13.556;2023-01-24T02:04:35;19.48;;;11.75;;
7051;SDS011;3567;52.444;13.556;2023-01-24T02:09:35;18.60;;;11.20;;
7051;SDS011;3567;52.444;13.556;2023-01-24T02:12:04;15.88;;;11.07;;
7051;SDS011;3567;52.444;13.556;2023-01-24T02:14:32;15.18;;;10.18;;
7051;SDS011;3567;52.444;13.556;2023-01-24T02:17:18;14.85;;;10.57;;
7051;SDS011;3567;52.444;13.556;2023-01-24T02:22:54;14.30;;;9.98;;
7051;SDS011;3567;52.444;13.556;2023-01-24T02:28:00;13.40;;;9.93;;
7051;SDS011;3567;52.444;13.556;2023-01-24T02:30:27;13.20;;;9.32;;
7051;SDS011;3567;52.444;13.556;2023-01-24T02:32:53;17.52;;;10.23;;
7051;SDS011;3567;52.444;13.556;2023-01-24T02:35:22;13.98;;;9.90;;
7051;SDS011;3567;52.444;13.556;2023-01-24T02:37:48;13.55;;;9.73;;
7051;SDS011;3567;52.444;13.556;2023-01-24T02:40:13;13.98;;;9.52;;
7051;SDS011;3567;52.444;13.556;2023-01-24T02:42:39;13.98;;;9.52;;
7051;SDS011;3567;52.444;13.556;2023-01-24T02:47:34;14.20;;;10.52;;
7051;SDS011;3567;52.444;13.556;2023-01-24T02:50:03;13.68;;;10.15;;
7051;SDS011;3567;52.444;13.556;2023-01-24T02:52:29;13.27;;;9.63;;
7051;SDS011;3567;52.444;13.556;2023-01-24T02:55:13;13.88;;;10.05;;
7051;SDS011;3567;52.444;13.556;2023-01-24T02:57:39;10.90;;;8.63;;
7051;SDS011;3567;52.444;13.556;2023-01-24T03:00:23;13.35;;;9.48;;
7051;SDS011;3567;52.444;13.556;2023-01-24T03:02:48;11.40;;;9.27;;
7051;SDS011;3567;52.444;13.556;2023-01-24T03:05:14;13.25;;;9.85;;
7051;SDS011;3567;52.444;13.556;2023-01-24T03:07:39;11.38;;;9.35;;
7051;SDS011;3567;52.444;13.556;2023-01-24T03:10:13;11.90;;;8.32;;
7051;SDS011;3567;52.444;13.556;2023-01-24T03:12:40;12.63;;;9.00;;
7051;SDS011;3567;52.444;13.556;2023-01-24T03:15:24;12.15;;;8.98;;
7051;SDS011;3567;52.444;13.556;2023-01-24T03:18:09;13.13;;;9.60;;
7051;SDS011;3567;52.444;13.556;2023-01-24T03:20:53;12.88;;;9.32;;
7051;SDS011;3567;52.444;13.556;2023-01-24T03:23:37;12.63;;;9.75;;
7051;SDS011;3567;52.444;13.556;2023-01-24T03:26:21;11.65;;;9.52;;
7051;SDS011;3567;52.444;13.556;2023-01-24T03:29:05;11.73;;;9.23;;
7051;SDS011;3567;52.444;13.556;2023-01-24T03:31:49;13.45;;;8.82;;
7051;SDS011;3567;52.444;13.556;2023-01-24T03:34:33;13.15;;;9.90;;
7051;SDS011;3567;52.444;13.556;2023-01-24T03:37:10;12.95;;;9.00;;
7051;SDS011;3567;52.444;13.556;2023-01-24T03:39:36;13.57;;;9.30;;
7051;SDS011;3567;52.444;13.556;2023-01-24T03:42:21;11.70;;;9.10;;
7051;SDS011;3567;52.444;13.556;2023-01-24T03:44:46;12.20;;;9.38;;
7051;SDS011;3567;52.444;13.556;2023-01-24T03:47:11;11.35;;;8.70;;
7051;SDS011;3567;52.444;13.556;2023-01-24T03:49:37;13.65;;;10.00;;
7051;SDS011;3567;52.444;13.556;2023-01-24T03:52:21;13.02;;;9.20;;
7051;SDS011;3567;52.444;13.556;2023-01-24T03:54:58;12.85;;;9.02;;
7051;SDS011;3567;52.444;13.556;2023-01-24T03:57:25;14.30;;;9.80;;
7051;SDS011;3567;52.444;13.556;2023-01-24T03:59:52;13.52;;;10.20;;
7051;SDS011;3567;52.444;13.556;2023-01-24T04:02:17;16.08;;;10.60;;
7051;SDS011;3567;52.444;13.556;2023-01-24T04:04:43;13.07;;;9.55;;
7051;SDS011;3567;52.444;13.556;2023-01-24T04:07:28;17.10;;;10.65;;
7051;SDS011;3567;52.444;13.556;2023-01-24T04:09:53;12.30;;;9.15;;
7051;SDS011;3567;52.444;13.556;2023-01-24T04:12:19;16.85;;;10.77;;
7051;SDS011;3567;52.444;13.556;2023-01-24T04:14:45;13.65;;;10.13;;
7051;SDS011;3567;52.444;13.556;2023-01-24T04:17:10;15.45;;;11.05;;
7051;SDS011;3567;52.444;13.556;2023-01-24T04:19:35;15.45;;;10.40;;
7051;SDS011;3567;52.444;13.556;2023-01-24T04:22:01;11.93;;;9.82;;
7051;SDS011;3567;52.444;13.556;2023-01-24T04:24:26;13.45;;;10.65;;
7051;SDS011;3567;52.444;13.556;2023-01-24T04:26:51;14.32;;;9.95;;
7051;SDS011;3567;52.444;13.556;2023-01-24T04:29:17;14.40;;;10.57;;
7051;SDS011;3567;52.444;13.556;2023-01-24T04:31:42;14.55;;;10.98;;
7051;SDS011;3567;52.444;13.556;2023-01-24T04:34:08;16.45;;;11.10;;
7051;SDS011;3567;52.444;13.556;2023-01-24T04:36:33;15.32;;;10.75;;
7051;SDS011;3567;52.444;13.556;2023-01-24T04:38:58;14.65;;;10.90;;
7051;SDS011;3567;52.444;13.556;2023-01-24T04:41:24;13.38;;;10.60;;
7051;SDS011;3567;52.444;13.556;2023-01-24T04:43:49;14.27;;;10.98;;
7051;SDS011;3567;52.444;13.556;2023-01-24T04:46:14;15.02;;;11.60;;
7051;SDS011;3567;52.444;13.556;2023-01-24T04:48:40;17.80;;;11.95;;
7051;SDS011;3567;52.444;13.556;2023-01-24T04:51:05;17.60;;;11.45;;
7051;SDS011;3567;52.444;13.556;2023-01-24T04:53:30;15.18;;;11.40;;
7051;SDS011;3567;52.444;13.556;2023-01-24T04:55:59;18.65;;;12.55;;
7051;SDS011;3567;52.444;13.556;2023-01-24T04:58:28;17.30;;;10.82;;
7051;SDS011;3567;52.444;13.556;2023-01-24T05:00:53;17.75;;;12.02;;
7051;SDS011;3567;52.444;13.556;2023-01-24T05:03:19;17.63;;;11.93;;
7051;SDS011;3567;52.444;13.556;2023-01-24T05:05:48;19.27;;;12.38;;
7051;SDS011;3567;52.444;13.556;2023-01-24T05:08:14;18.77;;;12.27;;
7051;SDS011;3567;52.444;13.556;2023-01-24T05:10:39;17.20;;;12.07;;
7051;SDS011;3567;52.444;13.556;2023-01-24T05:13:04;18.30;;;11.85;;
7051;SDS011;3567;52.444;13.556;2023-01-24T05:15:31;18.35;;;11.73;;
7051;SDS011;3567;52.444;13.556;2023-01-24T05:17:56;19.25;;;11.77;;
7051;SDS011;3567;52.444;13.556;2023-01-24T05:20:22;19.58;;;11.65;;
7051;SDS011;3567;52.444;13.556;2023-01-24T05:22:47;20.77;;;11.93;;
7051;SDS011;3567;52.444;13.556;2023-01-24T05:25:16;22.52;;;12.88;;
7051;SDS011;3567;52.444;13.556;2023-01-24T05:27:42;21.58;;;13.60;;
7051;SDS011;3567;52.444;13.556;2023-01-24T05:30:08;23.83;;;13.25;;
7051;SDS011;3567;52.444;13.556;2023-01-24T05:32:34;24.35;;;12.98;;
7051;SDS011;3567;52.444;13.556;2023-01-24T05:34:59;27.30;;;14.27;;
7051;SDS011;3567;52.444;13.556;2023-01-24T05:37:25;25.25;;;13.93;;
7051;SDS011;3567;52.444;13.556;2023-01-24T05:39:50;24.05;;;13.68;;
7051;SDS011;3567;52.444;13.556;2023-01-24T05:42:15;27.50;;;14.95;;
7051;SDS011;3567;52.444;13.556;2023-01-24T05:44:41;28.02;;;13.90;;
7051;SDS011;3567;52.444;13.556;2023-01-24T05:47:06;28.40;;;14.82;;
7051;SDS011;3567;52.444;13.556;2023-01-24T05:49:31;30.25;;;14.82;;
7051;SDS011;3567;52.444;13.556;2023-01-24T05:51:57;29.77;;;14.68;;
7051;SDS011;3567;52.444;13.556;2023-01-24T05:54:22;32.95;;;14.85;;
7051;SDS011;3567;52.444;13.556;2023-01-24T05:56:47;31.15;;;15.63;;
7051;SDS011;3567;52.444;13.556;2023-01-24T05:59:13;23.95;;;14.00;;
7051;SDS011;3567;52.444;13.556;2023-01-24T06:01:38;31.58;;;15.02;;
7051;SDS011;3567;52.444;13.556;2023-01-24T06:04:04;33.65;;;15.77;;
7051;SDS011;3567;52.444;13.556;2023-01-24T06:06:29;32.05;;;15.38;;
7051;SDS011;3567;52.444;13.556;2023-01-24T06:08:55;40.17;;;16.15;;
7051;SDS011;3567;52.444;13.556;2023-01-24T06:11:24;33.80;;;16.60;;
7051;SDS011;3567;52.444;13.556;2023-01-24T06:13:52;42.83;;;16.33;;
7051;SDS011;3567;52.444;13.556;2023-01-24T06:16:20;36.28;;;16.48;;
7051;SDS011;3567;52.444;13.556;2023-01-24T06:18:48;43.13;;;17.75;;
7051;SDS011;3567;52.444;13.556;2023-01-24T06:23:55;39.08;;;16.15;;
7051;SDS011;3567;52.444;13.556;2023-01-24T06:26:20;38.50;;;17.20;;
7051;SDS011;3567;52.444;13.556;2023-01-24T06:28:46;45.90;;;18.50;;
7051;SDS011;3567;52.444;13.556;2023-01-24T06:39:30;46.92;;;19.83;;
7051;SDS011;3567;52.444;13.556;2023-01-24T06:41:55;44.10;;;18.48;;
7051;SDS011;3567;52.444;13.556;2023-01-24T06:44:21;51.20;;;19.95;;
7051;SDS011;3567;52.444;13.556;2023-01-24T06:46:46;40.80;;;18.60;;
7051;SDS011;3567;52.444;13.556;2023-01-24T06:49:12;53.13;;;19.52;;
7051;SDS011;3567;52.444;13.556;2023-01-24T06:51:37;59.47;;;20.98;;
7051;SDS011;3567;52.444;13.556;2023-01-24T06:54:03;48.22;;;19.52;;
7051;SDS011;3567;52.444;13.556;2023-01-24T06:56:28;54.47;;;20.33;;
7051;SDS011;3567;52.444;13.556;2023-01-24T06:58:54;60.55;;;21.67;;
7051;SDS011;3567;52.444;13.556;2023-01-24T07:01:19;57.33;;;21.45;;
7051;SDS011;3567;52.444;13.556;2023-01-24T07:03:44;61.03;;;23.45;;
7051;SDS011;3567;52.444;13.556;2023-01-24T07:06:10;63.50;;;22.63;;
7051;SDS011;3567;52.444;13.556;2023-01-24T07:08:35;59.05;;;22.92;;
7051;SDS011;3567;52.444;13.556;2023-01-24T07:11:00;54.22;;;22.42;;
7051;SDS011;3567;52.444;13.556;2023-01-24T07:13:25;67.78;;;22.23;;
7051;SDS011;3567;52.444;13.556;2023-01-24T07:15:51;61.20;;;22.58;;
7051;SDS011;3567;52.444;13.556;2023-01-24T07:18:18;70.70;;;23.58;;
7051;SDS011;3567;52.444;13.556;2023-01-24T07:20:44;78.05;;;24.25;;
7051;SDS011;3567;52.444;13.556;2023-01-24T07:23:31;66.43;;;24.85;;
7051;SDS011;3567;52.444;13.556;2023-01-24T07:25:57;69.00;;;24.02;;
7051;SDS011;3567;52.444;13.556;2023-01-24T07:28:23;59.85;;;23.65;;
7051;SDS011;3567;52.444;13.556;2023-01-24T07:30:50;66.10;;;24.52;;
7051;SDS011;3567;52.444;13.556;2023-01-24T07:33:17;63.08;;;24.05;;
7051;SDS011;3567;52.444;13.556;2023-01-24T07:35:42;60.08;;;23.70;;
7051;SDS011;3567;52.444;13.556;2023-01-24T07:38:08;78.88;;;24.45;;
7051;SDS011;3567;52.444;13.556;2023-01-24T07:40:35;65.32;;;23.38;;
7051;SDS011;3567;52.444;13.556;2023-01-24T07:43:01;58.92;;;22.90;;
7051;SDS011;3567;52.444;13.556;2023-01-24T07:45:27;69.95;;;23.17;;
7051;SDS011;3567;52.444;13.556;2023-01-24T07:47:54;77.03;;;24.58;;
7051;SDS011;3567;52.444;13.556;2023-01-24T07:50:21;62.45;;;22.08;;
7051;SDS011;3567;52.444;13.556;2023-01-24T07:52:49;74.18;;;24.05;;
7051;SDS011;3567;52.444;13.556;2023-01-24T07:55:16;73.90;;;25.58;;
7051;SDS011;3567;52.444;13.556;2023-01-24T07:57:42;73.78;;;24.00;;
7051;SDS011;3567;52.444;13.556;2023-01-24T08:00:07;76.38;;;25.98;;
7051;SDS011;3567;52.444;13.556;2023-01-24T08:02:33;76.22;;;24.70;;
7051;SDS011;3567;52.444;13.556;2023-01-24T08:04:58;74.18;;;25.10;;
7051;SDS011;3567;52.444;13.556;2023-01-24T08:07:24;70.88;;;24.75;;
7051;SDS011;3567;52.444;13.556;2023-01-24T08:09:49;76.72;;;25.92;;
7051;SDS011;3567;52.444;13.556;2023-01-24T08:12:15;85.43;;;27.45;;
7051;SDS011;3567;52.444;13.556;2023-01-24T08:14:40;80.50;;;27.75;;
7051;SDS011;3567;52.444;13.556;2023-01-24T08:17:06;67.35;;;25.52;;
7051;SDS011;3567;52.444;13.556;2023-01-24T08:19:31;60.55;;;25.33;;
7051;SDS011;3567;52.444;13.556;2023-01-24T08:21:57;72.85;;;27.25;;
7051;SDS011;3567;52.444;13.556;2023-01-24T08:24:22;71.00;;;28.27;;
7051;SDS011;3567;52.444;13.556;2023-01-24T08:26:47;75.85;;;27.65;;
7051;SDS011;3567;52.444;13.556;2023-01-24T08:29:14;59.80;;;25.50;;
7051;SDS011;3567;52.444;13.556;2023-01-24T08:31:40;77.90;;;24.27;;
7051;SDS011;3567;52.444;13.556;2023-01-24T08:34:05;68.00;;;25.10;;
7051;SDS011;3567;52.444;13.556;2023-01-24T08:36:30;63.75;;;23.98;;
7051;SDS011;3567;52.444;13.556;2023-01-24T08:38:56;64.68;;;25.15;;
7051;SDS011;3567;52.444;13.556;2023-01-24T08:41:21;64.85;;;24.17;;
7051;SDS011;3567;52.444;13.556;2023-01-24T08:43:47;63.35;;;23.52;;
7051;SDS011;3567;52.444;13.556;2023-01-24T08:46:12;59.28;;;24.52;;
7051;SDS011;3567;52.444;13.556;2023-01-24T08:48:37;58.22;;;23.77;;
7051;SDS011;3567;52.444;13.556;2023-01-24T08:51:03;64.50;;;24.08;;
7051;SDS011;3567;52.444;13.556;2023-01-24T08:53:29;57.35;;;24.25;;
7051;SDS011;3567;52.444;13.556;2023-01-24T08:55:54;57.22;;;24.10;;
7051;SDS011;3567;52.444;13.556;2023-01-24T08:58:20;56.42;;;23.75;;
7051;SDS011;3567;52.444;13.556;2023-01-24T09:00:46;50.50;;;21.98;;
7051;SDS011;3567;52.444;13.556;2023-01-24T09:03:11;59.90;;;24.70;;
7051;SDS011;3567;52.444;13.556;2023-01-24T09:05:39;62.70;;;25.10;;
7051;SDS011;3567;52.444;13.556;2023-01-24T09:08:04;58.58;;;22.48;;
7051;SDS011;3567;52.444;13.556;2023-01-24T09:10:30;55.33;;;24.00;;
7051;SDS011;3567;52.444;13.556;2023-01-24T09:12:55;48.70;;;23.13;;
7051;SDS011;3567;52.444;13.556;2023-01-24T09:15:20;55.22;;;22.98;;
7051;SDS011;3567;52.444;13.556;2023-01-24T09:17:46;60.05;;;25.20;;
7051;SDS011;3567;52.444;13.556;2023-01-24T09:20:11;51.60;;;23.75;;
7051;SDS011;3567;52.444;13.556;2023-01-24T09:22:37;54.75;;;23.75;;
7051;SDS011;3567;52.444;13.556;2023-01-24T09:25:02;51.70;;;22.27;;
7051;SDS011;3567;52.444;13.556;2023-01-24T09:27:28;48.92;;;23.17;;
7051;SDS011;3567;52.444;13.556;2023-01-24T09:29:54;58.85;;;23.23;;
7051;SDS011;3567;52.444;13.556;2023-01-24T09:32:19;53.60;;;22.40;;
7051;SDS011;3567;52.444;13.556;2023-01-24T09:34:44;51.88;;;22.30;;
7051;SDS011;3567;52.444;13.556;2023-01-24T09:37:17;57.80;;;23.38;;
7051;SDS011;3567;52.444;13.556;2023-01-24T09:39:43;55.90;;;24.10;;
7051;SDS011;3567;52.444;13.556;2023-01-24T09:42:10;52.60;;;24.02;;
7051;SDS011;3567;52.444;13.556;2023-01-24T09:44:54;53.42;;;23.45;;
7051;SDS011;3567;52.444;13.556;2023-01-24T09:50:17;60.45;;;24.55;;
7051;SDS011;3567;52.444;13.556;2023-01-24T09:52:46;38.70;;;22.65;;
7051;SDS011;3567;52.444;13.556;2023-01-24T09:55:16;48.30;;;23.20;;
7051;SDS011;3567;52.444;13.556;2023-01-24T10:00:32;46.88;;;23.23;;
7051;SDS011;3567;52.444;13.556;2023-01-24T10:03:01;55.10;;;23.70;;
7051;SDS011;3567;52.444;13.556;2023-01-24T10:05:37;51.33;;;23.23;;
7051;SDS011;3567;52.444;13.556;2023-01-24T10:10:45;47.42;;;23.42;;
7051;SDS011;3567;52.444;13.556;2023-01-24T10:24:48;43.92;;;23.35;;
7051;SDS011;3567;52.444;13.556;2023-01-24T10:27:29;46.92;;;23.27;;
7051;SDS011;3567;52.444;13.556;2023-01-24T10:29:58;44.95;;;22.42;;
7051;SDS011;3567;52.444;13.556;2023-01-24T10:32:30;44.38;;;23.02;;
7051;SDS011;3567;52.444;13.556;2023-01-24T10:34:58;46.50;;;22.15;;
7051;SDS011;3567;52.444;13.556;2023-01-24T10:37:37;45.45;;;23.08;;
7051;SDS011;3567;52.444;13.556;2023-01-24T10:40:13;44.33;;;22.92;;
7051;SDS011;3567;52.444;13.556;2023-01-24T10:42:41;44.17;;;23.33;;
7051;SDS011;3567;52.444;13.556;2023-01-24T10:45:21;43.65;;;22.23;;
7051;SDS011;3567;52.444;13.556;2023-01-24T10:48:02;43.80;;;22.02;;
7051;SDS011;3567;52.444;13.556;2023-01-24T10:50:33;43.38;;;23.13;;
7051;SDS011;3567;52.444;13.556;2023-01-24T10:56:01;48.90;;;24.55;;
7051;SDS011;3567;52.444;13.556;2023-01-24T10:59:14;41.95;;;24.05;;
7051;SDS011;3567;52.444;13.556;2023-01-24T11:03:56;39.60;;;24.95;;
7051;SDS011;3567;52.444;13.556;2023-01-24T11:08:52;43.90;;;23.88;;
7051;SDS011;3567;52.444;13.556;2023-01-24T11:11:22;44.72;;;24.58;;
7051;SDS011;3567;52.444;13.556;2023-01-24T11:13:54;38.22;;;22.60;;
7051;SDS011;3567;52.444;13.556;2023-01-24T11:16:23;46.88;;;25.70;;
7051;SDS011;3567;52.444;13.556;2023-01-24T11:18:54;40.80;;;23.95;;
7051;SDS011;3567;52.444;13.556;2023-01-24T11:21:25;44.70;;;25.00;;
7051;SDS011;3567;52.444;13.556;2023-01-24T11:23:59;48.67;;;24.63;;
7051;SDS011;3567;52.444;13.556;2023-01-24T11:26:27;43.60;;;24.02;;
7051;SDS011;3567;52.444;13.556;2023-01-24T11:28:58;40.97;;;23.77;;
7051;SDS011;3567;52.444;13.556;2023-01-24T11:31:37;40.65;;;23.42;;
7051;SDS011;3567;52.444;13.556;2023-01-24T11:37:04;38.35;;;22.98;;
7051;SDS011;3567;52.444;13.556;2023-01-24T11:39:34;46.78;;;25.92;;
7051;SDS011;3567;52.444;13.556;2023-01-24T11:42:28;41.20;;;23.88;;
7051;SDS011;3567;52.444;13.556;2023-01-24T11:50:37;41.42;;;24.48;;
7051;SDS011;3567;52.444;13.556;2023-01-24T11:53:33;43.42;;;24.30;;
7051;SDS011;3567;52.444;13.556;2023-01-24T11:56:14;46.75;;;23.98;;
7051;SDS011;3567;52.444;13.556;2023-01-24T12:04:50;46.20;;;25.17;;
7051;SDS011;3567;52.444;13.556;2023-01-24T12:12:55;42.35;;;23.73;;
7051;SDS011;3567;52.444;13.556;2023-01-24T12:15:33;44.00;;;24.10;;
7051;SDS011;3567;52.444;13.556;2023-01-24T12:20:56;45.50;;;24.17;;
7051;SDS011;3567;52.444;13.556;2023-01-24T12:23:26;39.17;;;22.92;;
7051;SDS011;3567;52.444;13.556;2023-01-24T12:26:03;41.30;;;23.30;;
7051;SDS011;3567;52.444;13.556;2023-01-24T12:28:38;37.85;;;22.63;;
7051;SDS011;3567;52.444;13.556;2023-01-24T12:31:09;43.22;;;24.02;;
7051;SDS011;3567;52.444;13.556;2023-01-24T12:33:42;44.80;;;24.83;;
7051;SDS011;3567;52.444;13.556;2023-01-24T12:36:35;47.80;;;27.02;;
7051;SDS011;3567;52.444;13.556;2023-01-24T12:39:29;45.55;;;24.30;;
7051;SDS011;3567;52.444;13.556;2023-01-24T12:41:59;46.35;;;24.75;;
7051;SDS011;3567;52.444;13.556;2023-01-24T12:44:32;45.45;;;21.25;;
7051;SDS011;3567;52.444;13.556;2023-01-24T12:57:47;45.97;;;24.13;;
7051;SDS011;3567;52.444;13.556;2023-01-24T13:00:20;42.92;;;23.42;;
7051;SDS011;3567;52.444;13.556;2023-01-24T13:05:51;50.72;;;24.48;;
7051;SDS011;3567;52.444;13.556;2023-01-24T13:11:16;46.65;;;23.48;;
7051;SDS011;3567;52.444;13.556;2023-01-24T13:13:51;48.70;;;25.20;;
7051;SDS011;3567;52.444;13.556;2023-01-24T13:16:48;45.58;;;24.48;;
7051;SDS011;3567;52.444;13.556;2023-01-24T13:25:17;52.10;;;24.55;;
7051;SDS011;3567;52.444;13.556;2023-01-24T13:30:29;49.70;;;24.30;;
7051;SDS011;3567;52.444;13.556;2023-01-24T13:33:16;55.45;;;23.92;;
7051;SDS011;3567;52.444;13.556;2023-01-24T13:35:50;43.08;;;23.23;;
7051;SDS011;3567;52.444;13.556;2023-01-24T13:38:29;44.35;;;23.55;;
7051;SDS011;3567;52.444;13.556;2023-01-24T13:41:05;46.50;;;24.10;;
7051;SDS011;3567;52.444;13.556;2023-01-24T13:46:12;54.22;;;25.60;;
7051;SDS011;3567;52.444;13.556;2023-01-24T13:51:27;44.80;;;23.13;;
7051;SDS011;3567;52.444;13.556;2023-01-24T13:54:03;44.42;;;22.80;;
7051;SDS011;3567;52.444;13.556;2023-01-24T13:59:28;52.95;;;25.90;;
7051;SDS011;3567;52.444;13.556;2023-01-24T14:01:54;47.90;;;25.20;;
7051;SDS011;3567;52.444;13.556;2023-01-24T14:04:34;47.97;;;23.23;;
7051;SDS011;3567;52.444;13.556;2023-01-24T14:07:18;43.92;;;22.02;;
7051;SDS011;3567;52.444;13.556;2023-01-24T14:09:56;53.13;;;23.58;;
7051;SDS011;3567;52.444;13.556;2023-01-24T14:12:26;49.65;;;24.60;;
7051;SDS011;3567;52.444;13.556;2023-01-24T14:15:00;45.78;;;23.90;;
7051;SDS011;3567;52.444;13.556;2023-01-24T14:17:46;44.03;;;23.58;;
7051;SDS011;3567;52.444;13.556;2023-01-24T14:20:26;49.28;;;23.05;;
7051;SDS011;3567;52.444;13.556;2023-01-24T14:22:59;42.50;;;22.33;;
7051;SDS011;3567;52.444;13.556;2023-01-24T14:28:01;48.08;;;21.73;;
7051;SDS011;3567;52.444;13.556;2023-01-24T14:30:37;42.90;;;23.08;;
7051;SDS011;3567;52.444;13.556;2023-01-24T14:38:41;50.35;;;23.85;;
7051;SDS011;3567;52.444;13.556;2023-01-24T14:41:10;49.25;;;23.15;;
7051;SDS011;3567;52.444;13.556;2023-01-24T14:43:45;54.78;;;23.65;;
7051;SDS011;3567;52.444;13.556;2023-01-24T14:46:11;58.30;;;23.52;;
7051;SDS011;3567;52.444;13.556;2023-01-24T14:48:57;46.55;;;23.65;;
7051;SDS011;3567;52.444;13.556;2023-01-24T14:51:23;41.58;;;22.30;;
7051;SDS011;3567;52.444;13.556;2023-01-24T14:53:50;54.20;;;26.08;;
7051;SDS011;3567;52.444;13.556;2023-01-24T14:56:16;50.00;;;24.30;;
7051;SDS011;3567;52.444;13.556;2023-01-24T14:58:43;61.17;;;28.33;;
7051;SDS011;3567;52.444;13.556;2023-01-24T15:03:55;56.17;;;26.15;;
7051;SDS011;3567;52.444;13.556;2023-01-24T15:06:22;49.85;;;23.98;;
7051;SDS011;3567;52.444;13.556;2023-01-24T15:08:53;54.53;;;25.42;;
7051;SDS011;3567;52.444;13.556;2023-01-24T15:11:21;54.72;;;26.27;;
7051;SDS011;3567;52.444;13.556;2023-01-24T15:13:49;48.83;;;25.77;;
7051;SDS011;3567;52.444;13.556;2023-01-24T15:16:20;61.70;;;26.05;;
7051;SDS011;3567;52.444;13.556;2023-01-24T15:18:49;57.00;;;23.08;;
7051;SDS011;3567;52.444;13.556;2023-01-24T15:23:47;49.85;;;23.52;;
7051;SDS011;3567;52.444;13.556;2023-01-24T15:26:37;51.05;;;25.67;;
7051;SDS011;3567;52.444;13.556;2023-01-24T15:40:32;64.10;;;26.52;;
7051;SDS011;3567;52.444;13.556;2023-01-24T15:43:00;52.78;;;25.25;;
7051;SDS011;3567;52.444;13.556;2023-01-24T15:45:46;64.45;;;26.00;;
7051;SDS011;3567;52.444;13.556;2023-01-24T15:48:19;52.60;;;25.40;;
7051;SDS011;3567;52.444;13.556;2023-01-24T15:50:53;55.60;;;27.05;;
7051;SDS011;3567;52.444;13.556;2023-01-24T15:56:04;54.40;;;24.90;;
7051;SDS011;3567;52.444;13.556;2023-01-24T15:58:34;54.60;;;27.77;;
7051;SDS011;3567;52.444;13.556;2023-01-24T16:01:00;46.33;;;25.13;;
7051;SDS011;3567;52.444;13.556;2023-01-24T16:03:25;55.00;;;24.15;;
7051;SDS011;3567;52.444;13.556;2023-01-24T16:05:51;55.08;;;25.88;;
7051;SDS011;3567;52.444;13.556;2023-01-24T16:08:16;53.20;;;25.08;;
7051;SDS011;3567;52.444;13.556;2023-01-24T16:10:43;51.63;;;25.67;;
7051;SDS011;3567;52.444;13.556;2023-01-24T16:15:54;63.03;;;28.23;;
7051;SDS011;3567;52.444;13.556;2023-01-24T16:18:20;75.85;;;31.15;;
7051;SDS011;3567;52.444;13.556;2023-01-24T16:20:45;63.88;;;29.42;;
7051;SDS011;3567;52.444;13.556;2023-01-24T16:23:11;61.42;;;28.10;;
7051;SDS011;3567;52.444;13.556;2023-01-24T16:25:36;59.85;;;26.00;;
7051;SDS011;3567;52.444;13.556;2023-01-24T16:28:02;55.55;;;26.08;;
7051;SDS011;3567;52.444;13.556;2023-01-24T16:30:28;55.17;;;24.75;;
7051;SDS011;3567;52.444;13.556;2023-01-24T16:32:54;46.13;;;24.20;;
7051;SDS011;3567;52.444;13.556;2023-01-24T16:35:20;57.72;;;26.60;;
7051;SDS011;3567;52.444;13.556;2023-01-24T16:37:46;52.10;;;24.40;;
7051;SDS011;3567;52.444;13.556;2023-01-24T16:40:12;54.53;;;26.15;;
7051;SDS011;3567;52.444;13.556;2023-01-24T16:42:40;55.17;;;25.45;;
7051;SDS011;3567;52.444;13.556;2023-01-24T16:45:18;52.90;;;25.95;;
7051;SDS011;3567;52.444;13.556;2023-01-24T16:47:45;59.20;;;24.92;;
7051;SDS011;3567;52.444;13.556;2023-01-24T16:50:11;56.35;;;26.55;;
7051;SDS011;3567;52.444;13.556;2023-01-24T16:52:38;51.88;;;27.27;;
7051;SDS011;3567;52.444;13.556;2023-01-24T16:55:04;68.82;;;27.70;;
7051;SDS011;3567;52.444;13.556;2023-01-24T16:57:30;58.97;;;27.77;;
7051;SDS011;3567;52.444;13.556;2023-01-24T16:59:55;51.80;;;25.25;;
7051;SDS011;3567;52.444;13.556;2023-01-24T17:02:21;50.08;;;24.48;;
7051;SDS011;3567;52.444;13.556;2023-01-24T17:04:49;46.88;;;23.00;;
7051;SDS011;3567;52.444;13.556;2023-01-24T17:07:14;53.53;;;24.23;;